createdAt,value
2023-01-05T00:01:18.332Z,95.50318701050804
2023-01-05T00:04:17.735Z,95.33054535107611
2023-01-05T00:07:17.243Z,94.94971018662773
2023-01-05T00:31:16.589Z,93.79553916414582
2023-01-05T00:34:16.811Z,93.71742149057668
2023-01-05T00:37:16.771Z,93.93588915202217
2023-01-05T00:41:16.705Z,93.93556115662895
2023-01-05T00:44:17.006Z,93.92649273222563
2023-01-05T00:47:17.460Z,94.0246990645528
2023-01-05T00:51:16.381Z,93.86378176037888
2023-01-05T00:54:16.762Z,94.4202981241127
2023-01-05T00:57:17.135Z,94.80284015758086
2023-01-05T01:01:16.853Z,95.28205499277716
2023-01-05T01:04:18.220Z,95.92983709949509
2023-01-05T01:07:17.125Z,96.86871698206338
2023-01-05T01:11:17.343Z,97.33819521097698
2023-01-05T01:14:17.663Z,98.10196976756731
2023-01-05T01:17:17.237Z,97.75420453800514
2023-01-05T01:21:16.408Z,97.92450245769203
2023-01-05T01:24:18.542Z,97.5717958090812
2023-01-05T01:27:16.785Z,97.77548452223498
2023-01-05T01:31:16.608Z,98.2970621977494
2023-01-05T01:34:17.187Z,98.71859033479038
2023-01-05T01:37:16.878Z,98.74997866148499
2023-01-05T01:41:16.877Z,98.07191519862862
2023-01-05T01:44:52.905Z,97.89754251697404
2023-01-05T01:47:23.735Z,97.21204563671945
2023-01-05T01:51:20.520Z,96.79054348777488
2023-01-05T01:54:18.264Z,96.73280036142756
2023-01-05T01:57:17.179Z,96.43046817235097
2023-01-05T02:01:17.005Z,95.64299916103664
2023-01-05T02:04:17.549Z,95.46047180867116
2023-01-05T02:07:16.974Z,95.70288302327981
2023-01-05T02:11:29.376Z,96.20259269903752
2023-01-05T02:14:26.270Z,96.64601750478634
2023-01-05T02:17:27.928Z,96.91884000298215
2023-01-05T02:21:26.728Z,97.04814672089188
2023-01-05T02:24:39.678Z,96.60760441020992
2023-01-05T02:27:44.969Z,96.09143832948794
2023-01-05T02:31:21.092Z,94.92127636858048
2023-01-05T02:34:24.624Z,94.33324146774834
2023-01-05T02:37:25.456Z,93.75199400107337
2023-01-05T02:41:22.387Z,93.03334018740492
2023-01-05T02:44:17.340Z,92.71363698229543
2023-01-05T02:47:37.643Z,93.20515399112838
2023-01-05T02:51:22.730Z,93.36483423940247
2023-01-05T02:54:23.522Z,94.69357820825256
2023-01-05T02:57:21.717Z,95.6285137659096
2023-01-05T03:01:24.018Z,95.94131412555144
2023-01-05T03:04:23.204Z,96.53685361361241
2023-01-05T03:21:16.318Z,98.50335837240824
2023-01-05T03:41:19.641Z,97.99774151805566
2023-01-05T03:44:16.516Z,97.61202695534867
2023-01-05T03:47:16.636Z,96.75754550035076
2023-01-05T03:51:16.962Z,95.5055970557443
2023-01-05T03:54:16.852Z,94.71930643585618
2023-01-05T03:57:17.711Z,94.18790555136268
2023-01-05T04:01:16.666Z,93.75633663335242
2023-01-05T04:04:16.653Z,93.7261854654758
2023-01-05T04:07:16.788Z,94.24599011739797
2023-01-05T04:11:18.495Z,94.40950346016513
2023-01-05T04:14:16.572Z,94.54112840604755
2023-01-05T04:17:16.447Z,94.8018371613701
2023-01-05T04:21:16.495Z,95.09300948256588
2023-01-05T04:24:16.774Z,95.50601334752722
2023-01-05T04:27:16.829Z,95.88148991028963
2023-01-05T04:31:16.328Z,95.67863181421407
2023-01-05T04:34:16.759Z,95.41005545219879
2023-01-05T04:37:16.585Z,95.36259184291252
2023-01-05T04:41:16.436Z,94.95146308818684
2023-01-05T04:44:16.846Z,95.32627141572641
2023-01-05T04:47:16.794Z,95.99499585264111
2023-01-05T04:51:16.219Z,96.80150580454642
2023-01-05T04:54:17.777Z,96.91396924887471
2023-01-05T04:57:16.480Z,97.48256656001716
2023-01-05T05:01:17.030Z,97.19919486018057
2023-01-05T05:04:17.143Z,97.45381867522933
2023-01-05T05:07:17.587Z,97.80885904672569
2023-01-05T05:11:16.816Z,97.6876156909726
2023-01-05T05:14:17.238Z,97.82906943951114
2023-01-05T05:17:17.115Z,98.2205164161767
2023-01-05T05:21:16.161Z,98.26324748572559
2023-01-05T05:24:16.364Z,98.66234591181944
2023-01-05T05:27:16.501Z,98.72297089528126
2023-01-05T05:31:16.666Z,98.68247393130258
2023-01-05T05:34:16.998Z,98.60898009544826
2023-01-05T05:37:16.884Z,98.46606421850615
2023-01-05T05:41:17.128Z,98.35444615644359
2023-01-05T05:44:17.462Z,98.28907488962523
2023-01-05T05:47:17.355Z,98.43440820602663
2023-01-05T05:51:16.704Z,98.47292272620057
2023-01-05T05:54:17.270Z,98.85222712616304
2023-01-05T05:57:17.895Z,99.02110634130243
2023-01-05T06:01:16.630Z,98.39924392272849
2023-01-05T06:04:18.728Z,98.40552588013139
2023-01-05T06:07:16.975Z,98.60054507277749
2023-01-05T06:11:16.799Z,98.7965938294279
2023-01-05T06:14:17.419Z,99.16251955883763
2023-01-05T06:17:17.104Z,99.6216307556898
2023-01-05T06:21:17.030Z,99.28170387526396
2023-01-05T06:24:17.354Z,99.68899140568348
2023-01-05T06:27:17.201Z,99.52534196694089
2023-01-05T06:31:16.618Z,99.02121620117723
2023-01-05T06:34:16.872Z,98.33259167175991
2023-01-05T06:37:16.988Z,97.97932641149546
2023-01-05T06:41:16.217Z,98.87724714995394
2023-01-05T06:44:16.491Z,98.92314553969885
2023-01-05T06:47:17.191Z,99.22749470794231
2023-01-05T06:51:16.790Z,99.47671912609307
2023-01-05T06:54:17.415Z,100
2023-01-05T06:57:17.403Z,100
2023-01-05T07:01:16.937Z,100
2023-01-05T07:04:17.432Z,100
2023-01-05T07:07:17.089Z,100
2023-01-05T07:11:16.837Z,100
2023-01-05T07:14:17.799Z,100
2023-01-05T07:17:17.121Z,100
2023-01-05T07:21:16.787Z,100
2023-01-05T07:24:17.103Z,100
2023-01-05T07:27:16.963Z,100
2023-01-05T07:31:16.286Z,100
2023-01-05T07:34:16.416Z,100
2023-01-05T07:37:16.345Z,100
2023-01-05T07:41:16.274Z,100
2023-01-05T07:44:16.647Z,100
2023-01-05T07:47:16.611Z,100
2023-01-05T07:51:16.124Z,100
2023-01-05T07:54:16.300Z,100
2023-01-05T07:57:16.353Z,100
2023-01-05T08:01:16.427Z,100
2023-01-05T08:04:16.996Z,100
2023-01-05T08:07:16.440Z,100
2023-01-05T08:11:17.810Z,100
2023-01-05T08:14:17.106Z,100
2023-01-05T08:17:17.026Z,100
2023-01-05T08:21:16.447Z,100
2023-01-05T08:24:16.595Z,100
2023-01-05T08:27:16.700Z,100
2023-01-05T08:31:20.022Z,100
2023-01-05T08:34:17.415Z,100
2023-01-05T08:37:17.379Z,100
2023-01-05T08:41:18.397Z,100
2023-01-05T08:44:16.982Z,100
2023-01-05T08:47:18.411Z,100
2023-01-05T08:51:17.669Z,100
2023-01-05T08:54:17.314Z,100
2023-01-05T08:57:17.196Z,100
2023-01-05T09:01:18.514Z,100
2023-01-05T09:04:16.862Z,100
2023-01-05T09:07:16.601Z,100
2023-01-05T09:11:19.180Z,100
2023-01-05T09:14:18.256Z,100
2023-01-05T09:17:17.041Z,100
2023-01-05T09:21:17.159Z,100
2023-01-05T09:24:17.245Z,100
2023-01-05T09:27:16.817Z,100
2023-01-05T09:31:18.356Z,100
2023-01-05T09:34:17.001Z,100
2023-01-05T09:37:16.913Z,100
2023-01-05T09:41:21.927Z,100
2023-01-05T09:44:27.601Z,100
2023-01-05T09:47:26.518Z,100
2023-01-05T09:51:16.442Z,100
2023-01-05T09:54:18.956Z,100
2023-01-05T09:57:19.638Z,100
2023-01-05T10:01:18.415Z,100
2023-01-05T10:04:25.221Z,100
2023-01-05T10:07:23.695Z,100
2023-01-05T10:21:27.205Z,100
2023-01-05T10:24:27.024Z,100
2023-01-05T10:27:25.561Z,100
2023-01-05T10:31:22.954Z,100
2023-01-05T10:34:22.571Z,100
2023-01-05T10:37:33.277Z,100
2023-01-05T10:41:26.393Z,100
2023-01-05T10:44:39.464Z,100
2023-01-05T10:47:17.432Z,98.60632282004634
2023-01-05T10:51:17.611Z,97.50508452857589
2023-01-05T10:54:25.903Z,97.65075215818135
2023-01-05T10:57:49.442Z,94.68130861016556
2023-01-05T11:01:23.730Z,94.74186978335129
2023-01-05T11:04:34.881Z,92.70822363874329
2023-01-05T11:07:17.339Z,92.63743794831757
2023-01-05T11:11:22.382Z,90.0944429605439
2023-01-05T11:14:16.851Z,88.53483793041515
2023-01-05T11:17:21.037Z,88.19710477952609
2023-01-05T11:21:18.320Z,85.34201796723174
2023-01-05T11:24:28.502Z,83.48961711585933
2023-01-05T11:27:24.035Z,83.03298503819646
2023-01-05T11:31:17.162Z,81.01086934471317
2023-01-05T11:34:27.189Z,80.34227925393444
2023-01-05T11:37:24.421Z,78.60213984460485
2023-01-05T11:41:20.664Z,78.15235530926114
2023-01-05T11:44:21.872Z,77.65963333098892
2023-01-05T11:47:21.825Z,76.2123221101217
2023-01-05T11:51:33.144Z,77.0140214507189
2023-01-05T11:54:34.391Z,74.85113133472633
2023-01-05T11:57:18.646Z,75.69131121585572
2023-01-05T12:01:41.870Z,75.32393346381862
2023-01-05T12:04:54.276Z,75.41582803731508
2023-01-05T12:07:28.374Z,76.14080909889118
2023-01-05T12:11:19.213Z,76.19610473714769
2023-01-05T12:14:32.245Z,74.55634379982189
2023-01-05T12:17:24.863Z,75.05939876180967
2023-01-05T12:21:22.843Z,72.81353381133778
2023-01-05T12:24:36.135Z,73.87319565880391
2023-01-05T12:27:33.939Z,72.46981712397057
2023-01-05T12:34:00.495Z,72.98524665803853
2023-01-05T12:34:33.207Z,71.93321559873897
2023-01-05T12:37:31.143Z,71.01459136389906
2023-01-05T12:41:43.641Z,70.87566584770082
2023-01-05T12:44:38.044Z,72.2113956460199
2023-01-05T12:47:31.798Z,74.0588937884889
2023-01-05T12:51:22.243Z,74.84916010702705
2023-01-05T12:54:30.479Z,75.02584560159181
2023-01-05T12:57:25.550Z,75.52179936609629
2023-01-05T13:01:22.818Z,75.70827480723732
2023-01-05T13:04:37.846Z,76.09124043627686
2023-01-05T13:07:23.181Z,76.64932599306319
2023-01-05T13:11:23.683Z,75.95413526593745
2023-01-05T13:14:19.684Z,75.83054270784072
2023-01-05T13:17:24.868Z,76.11359048715389
2023-01-05T13:21:18.238Z,76.51685839236357
2023-01-05T13:24:30.114Z,76.77290232187804
2023-01-05T13:27:17.654Z,77.51056501014648
2023-01-05T13:32:35.152Z,77.15487924568936
2023-01-05T13:34:29.981Z,77.00812583116091
2023-01-05T13:37:51.006Z,78.37990894953701
2023-01-05T13:41:29.951Z,76.27369436314228
2023-01-05T13:51:56.038Z,76.10916829948398
2023-01-05T17:51:16.290Z,85.22779174806342
2023-01-05T17:54:16.376Z,86.60128894471396
2023-01-05T17:57:16.187Z,86.84225689342966
2023-01-05T18:01:17.511Z,87.1601985540768
2023-01-05T18:04:17.107Z,86.6544455201493
2023-01-05T18:07:17.531Z,86.2259692538424
2023-01-05T18:11:17.638Z,86.49708876031517
2023-01-05T18:14:16.518Z,86.00737998299478
2023-01-05T18:17:16.754Z,85.803480687288
2023-01-05T18:21:16.435Z,86.18739646793699
2023-01-05T18:24:16.851Z,86.09713843541513
2023-01-05T18:27:17.048Z,86.57357861822044
2023-01-05T18:31:16.818Z,86.60880389144512
2023-01-05T18:34:17.449Z,86.95639403549515
2023-01-05T18:37:21.806Z,86.62686690509601
2023-01-05T18:41:22.436Z,87.03264212558975
2023-01-05T18:44:16.699Z,87.28917650243109
2023-01-05T18:47:16.650Z,86.94771808840945
2023-01-05T18:51:16.376Z,87.01067887968718
2023-01-05T18:54:16.714Z,87.69535076702226
2023-01-05T18:57:16.689Z,88.53696192047347
2023-01-05T19:01:17.811Z,89.39926883925563
2023-01-05T19:04:16.947Z,89.66427394250846
2023-01-05T19:07:16.550Z,89.58769948702619
2023-01-05T19:11:18.358Z,88.86824411090831
2023-01-05T19:14:16.643Z,89.30929724413436
2023-01-05T19:17:16.527Z,89.01436507304196
2023-01-05T19:21:16.295Z,88.48520750096405
2023-01-05T19:24:19.040Z,89.04400727612497
2023-01-05T19:27:16.497Z,88.63251321280782
2023-01-05T19:31:18.189Z,88.74647284770866
2023-01-05T19:34:19.622Z,89.20545519435781
2023-01-05T19:37:17.275Z,88.87289158259237
2023-01-05T19:41:19.705Z,89.18140569190322
2023-01-05T19:44:18.910Z,89.3904294870985
2023-01-05T19:47:17.089Z,89.92466849993114
2023-01-05T19:51:18.215Z,90.48884266084944
2023-01-05T19:54:16.886Z,90.63148475421261
2023-01-05T19:57:16.402Z,90.36273500273772
2023-01-05T20:01:16.038Z,89.71093557273404
2023-01-05T20:04:16.610Z,90.33118356844076
2023-01-05T20:07:16.631Z,90.20109356102175
2023-01-05T20:11:16.099Z,89.90516512072173
2023-01-05T20:14:18.539Z,89.98901159631929
2023-01-05T20:17:16.260Z,90.44256309988803
2023-01-05T20:21:16.699Z,89.8015123772764
2023-01-05T20:24:20.145Z,89.39515530937369
2023-01-05T20:27:18.982Z,89.61161733500735
2023-01-05T20:31:19.517Z,89.24331825648292
2023-01-05T20:34:19.622Z,88.78472037090539
2023-01-05T20:37:17.197Z,88.46850850189432
2023-01-05T20:41:18.768Z,87.76908373255273
2023-01-05T20:44:19.733Z,87.19371401112177
2023-01-05T20:47:17.172Z,87.1143068787625
2023-01-05T20:51:17.855Z,86.38567940746134
2023-01-05T20:54:17.313Z,86.38131419435055
2023-01-05T20:57:17.168Z,86.39684625118929
2023-01-05T21:01:17.384Z,86.9504996791765
2023-01-05T21:04:18.543Z,88.24131597839049
2023-01-05T21:07:17.465Z,88.57581967389932
2023-01-05T21:11:17.802Z,88.9780823405406
2023-01-05T21:14:16.690Z,89.26053207625378
2023-01-05T21:17:16.879Z,89.13833630350308
2023-01-05T21:21:18.864Z,88.73275820330637
2023-01-05T21:24:16.912Z,88.92720033193156
2023-01-05T21:27:16.543Z,88.97095057383821
2023-01-05T21:31:19.159Z,88.77357313971616
2023-01-05T21:34:16.609Z,88.74509732941766
2023-01-05T21:37:16.762Z,88.66996557744335
2023-01-05T21:41:16.500Z,88.21949765254088
2023-01-05T21:44:17.463Z,87.96245934322155
2023-01-05T21:47:16.875Z,88.08370823163408
2023-01-05T22:01:17.005Z,90.28091497368061
2023-01-05T22:04:17.199Z,90.90663587339958
2023-01-05T22:07:16.960Z,90.73970099684074
2023-01-05T22:11:16.694Z,91.56070523856093
2023-01-05T22:14:17.172Z,91.61685121923135
2023-01-05T22:17:16.989Z,91.75645407365093
2023-01-05T22:21:17.262Z,91.75771874899227
2023-01-05T22:24:16.919Z,92.40055976327943
2023-01-05T22:27:16.919Z,92.78347897722668
2023-01-05T22:31:18.452Z,92.6481677846504
2023-01-05T22:34:17.021Z,92.88000091950799
2023-01-05T22:37:17.078Z,92.38494669512245
2023-01-05T22:41:17.985Z,91.99527833879395
2023-01-05T22:44:16.457Z,91.92886448817826
2023-01-05T22:47:16.183Z,91.52323747554472
2023-01-05T22:51:18.616Z,91.39176460138009
2023-01-05T22:54:17.351Z,91.3285700216418
2023-01-05T22:57:17.086Z,91.49015291298898
2023-01-05T23:01:21.564Z,90.83759930246858
2023-01-05T23:04:17.073Z,90.776499882572
2023-01-05T23:07:20.975Z,90.71967458615326
2023-01-05T23:11:19.989Z,90.74418865153653
2023-01-05T23:14:18.665Z,90.92806658392668
2023-01-05T23:17:17.044Z,90.65889712987384
2023-01-05T23:21:18.742Z,90.69276255316723
2023-01-05T23:24:16.708Z,91.07753476266284
2023-01-05T23:27:16.884Z,90.93797531931051
2023-01-05T23:31:16.869Z,90.31451772890213
2023-01-05T23:34:16.951Z,90.20915158084424
2023-01-05T23:37:16.777Z,89.95782504605958
2023-01-05T23:41:17.408Z,89.8921951291179
2023-01-05T23:44:17.452Z,89.73665172871077
2023-01-05T23:47:17.027Z,89.76038052249457
2023-01-05T23:51:17.812Z,89.61820770485912
2023-01-05T23:54:16.895Z,89.73542343745547
2023-01-05T23:57:16.759Z,89.06754354870253
